KAP8961 TISX-TJVQ
Flight info
| Callsign | KAP8961 |
|---|---|
| Flight time | 0h 25m |
| Altitude | 0 |
| Route | VFR |
| Aircraft | P212/L-VGD/C |
Departure
| Time | 2026-04-26 03:14 |
|---|---|
| Airport | Henry E. Rohlsen Airport (TISX) |
Arrival
| Time | 2026-04-26 03:39 |
|---|---|
| Airport | Antonio Rivera Rodriguez Airport (TJVQ) |
| Time | Latitude | Longitude | Altitude | Speed | Heading |
|---|---|---|---|---|---|
| 2026-04-26 03:04 | 17.69963 | -64.79756 | 26 ft | 0 kts | 83° |
| 2026-04-26 03:06 | 17.69971 | -64.79735 | 35 ft | 7 kts | 41° |
| 2026-04-26 03:06 | 17.69994 | -64.79729 | 35 ft | 0 kts | 353° |
| 2026-04-26 03:07 | 17.70007 | -64.79731 | 35 ft | 6 kts | 347° |
| 2026-04-26 03:08 | 17.70051 | -64.79792 | 35 ft | 18 kts | 272° |
| 2026-04-26 03:08 | 17.70035 | -64.79955 | 35 ft | 27 kts | 264° |
| 2026-04-26 03:08 | 17.70011 | -64.80185 | 35 ft | 35 kts | 264° |
| 2026-04-26 03:08 | 17.69989 | -64.80444 | 35 ft | 36 kts | 264° |
| 2026-04-26 03:09 | 17.69964 | -64.80708 | 35 ft | 32 kts | 263° |
| 2026-04-26 03:09 | 17.69935 | -64.80929 | 35 ft | 30 kts | 264° |
| 2026-04-26 03:09 | 17.69920 | -64.81135 | 35 ft | 28 kts | 263° |
| 2026-04-26 03:09 | 17.69896 | -64.81309 | 35 ft | 25 kts | 259° |
| 2026-04-26 03:10 | 17.69884 | -64.81456 | 35 ft | 19 kts | 266° |
| 2026-04-26 03:10 | 17.69876 | -64.81582 | 35 ft | 12 kts | 276° |
| 2026-04-26 03:10 | 17.69896 | -64.81602 | 35 ft | 0 kts | 350° |
| 2026-04-26 03:12 | 17.69901 | -64.81603 | 35 ft | 5 kts | 351° |
| 2026-04-26 03:13 | 17.69995 | -64.81611 | 35 ft | 13 kts | 23° |
| 2026-04-26 03:13 | 17.70019 | -64.81464 | 36 ft | 46 kts | 84° |
| 2026-04-26 03:13 | 17.70064 | -64.80932 | 46 ft | 95 kts | 85° |
| 2026-04-26 03:13 | 17.70160 | -64.80216 | 355 ft | 93 kts | 87° |
| 2026-04-26 03:14 | 17.70175 | -64.79505 | 548 ft | 106 kts | 100° |
| 2026-04-26 03:14 | 17.69821 | -64.78741 | 712 ft | 123 kts | 136° |
| 2026-04-26 03:14 | 17.69091 | -64.78434 | 1146 ft | 119 kts | 178° |
| 2026-04-26 03:14 | 17.68246 | -64.78602 | 1426 ft | 123 kts | 194° |
| 2026-04-26 03:15 | 17.67460 | -64.78950 | 1758 ft | 131 kts | 212° |
| 2026-04-26 03:15 | 17.66824 | -64.79649 | 2084 ft | 134 kts | 236° |
| 2026-04-26 03:15 | 17.66557 | -64.80236 | 2328 ft | 134 kts | 246° |
| 2026-04-26 03:15 | 17.66429 | -64.81217 | 2658 ft | 138 kts | 274° |
| 2026-04-26 03:16 | 17.66701 | -64.82187 | 2932 ft | 145 kts | 291° |
| 2026-04-26 03:16 | 17.67272 | -64.83437 | 3414 ft | 136 kts | 300° |
| 2026-04-26 03:16 | 17.67870 | -64.84248 | 3655 ft | 144 kts | 309° |
| 2026-04-26 03:16 | 17.68546 | -64.84997 | 4023 ft | 139 kts | 313° |
| 2026-04-26 03:17 | 17.69007 | -64.85488 | 4222 ft | 142 kts | 310° |
| 2026-04-26 03:17 | 17.69636 | -64.86304 | 4453 ft | 148 kts | 307° |
| 2026-04-26 03:17 | 17.70301 | -64.87189 | 4515 ft | 162 kts | 307° |
| 2026-04-26 03:17 | 17.70987 | -64.88157 | 4444 ft | 169 kts | 303° |
| 2026-04-26 03:18 | 17.71650 | -64.89175 | 4441 ft | 168 kts | 301° |
| 2026-04-26 03:18 | 17.72335 | -64.90182 | 4354 ft | 173 kts | 307° |
| 2026-04-26 03:18 | 17.73058 | -64.91198 | 4253 ft | 175 kts | 304° |
| 2026-04-26 03:18 | 17.73770 | -64.92244 | 4163 ft | 174 kts | 304° |
| 2026-04-26 03:19 | 17.74450 | -64.93336 | 3772 ft | 186 kts | 300° |
| 2026-04-26 03:19 | 17.75118 | -64.94521 | 3383 ft | 189 kts | 298° |
| 2026-04-26 03:19 | 17.75730 | -64.95707 | 3146 ft | 183 kts | 296° |
| 2026-04-26 03:19 | 17.76289 | -64.96910 | 2728 ft | 187 kts | 292° |
| 2026-04-26 03:20 | 17.76800 | -64.98147 | 2500 ft | 182 kts | 292° |
| 2026-04-26 03:20 | 17.77302 | -64.99368 | 2209 ft | 183 kts | 292° |
| 2026-04-26 03:20 | 17.77789 | -65.00608 | 1893 ft | 183 kts | 289° |
| 2026-04-26 03:20 | 17.78204 | -65.01862 | 1616 ft | 182 kts | 287° |
| 2026-04-26 03:21 | 17.78583 | -65.03126 | 1340 ft | 180 kts | 285° |
| 2026-04-26 03:21 | 17.78930 | -65.04375 | 1180 ft | 173 kts | 286° |
| 2026-04-26 03:21 | 17.79280 | -65.05529 | 1241 ft | 162 kts | 286° |
| 2026-04-26 03:21 | 17.79642 | -65.06593 | 1530 ft | 152 kts | 294° |
| 2026-04-26 03:22 | 17.80202 | -65.07545 | 1669 ft | 154 kts | 304° |
| 2026-04-26 03:22 | 17.80814 | -65.08475 | 1853 ft | 155 kts | 303° |
| 2026-04-26 03:22 | 17.81424 | -65.09402 | 2048 ft | 154 kts | 304° |
| 2026-04-26 03:22 | 17.82034 | -65.10322 | 2238 ft | 153 kts | 304° |
| 2026-04-26 03:23 | 17.82646 | -65.11234 | 2409 ft | 153 kts | 304° |
| 2026-04-26 03:23 | 17.83279 | -65.12167 | 2467 ft | 162 kts | 304° |
| 2026-04-26 03:23 | 17.83942 | -65.13149 | 2478 ft | 168 kts | 304° |
| 2026-04-26 03:23 | 17.84623 | -65.14161 | 2481 ft | 171 kts | 303° |
| 2026-04-26 03:24 | 17.85315 | -65.15187 | 2480 ft | 173 kts | 304° |
| 2026-04-26 03:24 | 17.86016 | -65.16217 | 2475 ft | 174 kts | 304° |
| 2026-04-26 03:24 | 17.86716 | -65.17255 | 2478 ft | 174 kts | 304° |
| 2026-04-26 03:24 | 17.87417 | -65.18296 | 2473 ft | 175 kts | 304° |
| 2026-04-26 03:25 | 17.88120 | -65.19339 | 2474 ft | 175 kts | 304° |
| 2026-04-26 03:25 | 17.88823 | -65.20385 | 2475 ft | 175 kts | 304° |
| 2026-04-26 03:25 | 17.89524 | -65.21431 | 2479 ft | 175 kts | 304° |
| 2026-04-26 03:25 | 17.90221 | -65.22476 | 2472 ft | 174 kts | 304° |
| 2026-04-26 03:26 | 17.90913 | -65.23516 | 2477 ft | 173 kts | 304° |
| 2026-04-26 03:26 | 17.91603 | -65.24545 | 2475 ft | 172 kts | 304° |
| 2026-04-26 03:26 | 17.92294 | -65.25571 | 2471 ft | 171 kts | 304° |
| 2026-04-26 03:26 | 17.92982 | -65.26591 | 2472 ft | 171 kts | 304° |
| 2026-04-26 03:27 | 17.93667 | -65.27608 | 2471 ft | 171 kts | 304° |
| 2026-04-26 03:27 | 17.94353 | -65.28623 | 2465 ft | 170 kts | 304° |
| 2026-04-26 03:27 | 17.95034 | -65.29624 | 2472 ft | 170 kts | 304° |
| 2026-04-26 03:27 | 17.95726 | -65.30635 | 2471 ft | 171 kts | 304° |
| 2026-04-26 03:28 | 17.96418 | -65.31651 | 2470 ft | 171 kts | 304° |
| 2026-04-26 03:28 | 17.97112 | -65.32667 | 2464 ft | 171 kts | 304° |
| 2026-04-26 03:28 | 17.97812 | -65.33683 | 2471 ft | 172 kts | 304° |
| 2026-04-26 03:28 | 17.98511 | -65.34705 | 2471 ft | 172 kts | 304° |
| 2026-04-26 03:29 | 17.99206 | -65.35729 | 2474 ft | 172 kts | 304° |
| 2026-04-26 03:29 | 17.99902 | -65.36751 | 2475 ft | 172 kts | 304° |
| 2026-04-26 03:29 | 18.00597 | -65.37768 | 2467 ft | 171 kts | 304° |
| 2026-04-26 03:29 | 18.01293 | -65.38788 | 2473 ft | 172 kts | 304° |
| 2026-04-26 03:30 | 18.01988 | -65.39806 | 2475 ft | 172 kts | 304° |
| 2026-04-26 03:30 | 18.02686 | -65.40829 | 2467 ft | 172 kts | 304° |
| 2026-04-26 03:30 | 18.03383 | -65.41854 | 2473 ft | 172 kts | 304° |
| 2026-04-26 03:30 | 18.04079 | -65.42879 | 2472 ft | 172 kts | 304° |
| 2026-04-26 03:31 | 18.04764 | -65.43891 | 2453 ft | 173 kts | 303° |
| 2026-04-26 03:31 | 18.05434 | -65.44949 | 2381 ft | 176 kts | 300° |
| 2026-04-26 03:31 | 18.06071 | -65.46058 | 2304 ft | 176 kts | 300° |
| 2026-04-26 03:31 | 18.06679 | -65.47147 | 2353 ft | 171 kts | 299° |
| 2026-04-26 03:32 | 18.07456 | -65.48102 | 2170 ft | 180 kts | 327° |
| 2026-04-26 03:32 | 18.08712 | -65.48384 | 1850 ft | 186 kts | 6° |
| 2026-04-26 03:32 | 18.09830 | -65.47980 | 1765 ft | 162 kts | 33° |
| 2026-04-26 03:32 | 18.10704 | -65.47285 | 1558 ft | 155 kts | 39° |
| 2026-04-26 03:33 | 18.11630 | -65.46698 | 1222 ft | 159 kts | 18° |
| 2026-04-26 03:33 | 18.12656 | -65.46416 | 977 ft | 151 kts | 12° |
| 2026-04-26 03:33 | 18.13645 | -65.46433 | 846 ft | 135 kts | 336° |
| 2026-04-26 03:33 | 18.14076 | -65.47095 | 857 ft | 103 kts | 259° |
| 2026-04-26 03:34 | 18.13847 | -65.47831 | 433 ft | 112 kts | 253° |
| 2026-04-26 03:34 | 18.13675 | -65.48622 | 418 ft | 113 kts | 257° |
| 2026-04-26 03:34 | 18.13505 | -65.49469 | 593 ft | 125 kts | 255° |
| 2026-04-26 03:34 | 18.13310 | -65.50411 | 804 ft | 134 kts | 258° |
| 2026-04-26 03:35 | 18.13496 | -65.51352 | 1084 ft | 139 kts | 306° |
| 2026-04-26 03:35 | 18.14392 | -65.51793 | 1166 ft | 154 kts | 352° |
| 2026-04-26 03:35 | 18.15458 | -65.51851 | 1187 ft | 149 kts | 8° |
| 2026-04-26 03:35 | 18.16333 | -65.51332 | 1065 ft | 145 kts | 53° |
| 2026-04-26 03:36 | 18.16691 | -65.50389 | 1041 ft | 138 kts | 80° |
| 2026-04-26 03:36 | 18.16876 | -65.49449 | 958 ft | 126 kts | 83° |
| 2026-04-26 03:36 | 18.17005 | -65.48643 | 1017 ft | 96 kts | 86° |
| 2026-04-26 03:36 | 18.17073 | -65.47877 | 895 ft | 108 kts | 92° |
| 2026-04-26 03:37 | 18.16656 | -65.47306 | 734 ft | 107 kts | 159° |
| 2026-04-26 03:37 | 18.15991 | -65.47051 | 608 ft | 99 kts | 162° |
| 2026-04-26 03:37 | 18.15304 | -65.46862 | 488 ft | 101 kts | 169° |
| 2026-04-26 03:37 | 18.14634 | -65.46845 | 439 ft | 96 kts | 192° |
| 2026-04-26 03:38 | 18.14089 | -65.47199 | 321 ft | 96 kts | 227° |
| 2026-04-26 03:38 | 18.13855 | -65.47813 | 250 ft | 94 kts | 251° |
| 2026-04-26 03:38 | 18.13697 | -65.48480 | 112 ft | 93 kts | 251° |
| 2026-04-26 03:38 | 18.13550 | -65.49098 | 38 ft | 76 kts | 256° |
| 2026-04-26 03:39 | 18.13442 | -65.49550 | 48 ft | 50 kts | 257° |
| 2026-04-26 03:39 | 18.13407 | -65.49702 | 55 ft | 10 kts | 221° |
| 2026-04-26 03:39 | 18.13342 | -65.49693 | 52 ft | 0 kts | 157° |
| 2026-04-26 03:39 | 18.13330 | -65.49670 | 50 ft | 11 kts | 84° |
| 2026-04-26 03:40 | 18.13359 | -65.49545 | 48 ft | 25 kts | 79° |
| 2026-04-26 03:40 | 18.13394 | -65.49379 | 42 ft | 26 kts | 76° |
| 2026-04-26 03:40 | 18.13433 | -65.49224 | 39 ft | 20 kts | 70° |
| 2026-04-26 03:40 | 18.13480 | -65.49087 | 37 ft | 16 kts | 75° |
| 2026-04-26 03:41 | 18.13506 | -65.48971 | 32 ft | 12 kts | 78° |
| 2026-04-26 03:41 | 18.13514 | -65.48926 | 31 ft | 7 kts | 79° |
| 2026-04-26 03:41 | 18.13530 | -65.48864 | 30 ft | 10 kts | 75° |
| 2026-04-26 03:41 | 18.13534 | -65.48847 | 30 ft | 1 kts | 82° |
| 2026-04-26 03:42 | 18.13541 | -65.48805 | 29 ft | 10 kts | 82° |
| 2026-04-26 03:42 | 18.13527 | -65.48750 | 29 ft | 8 kts | 153° |
| 2026-04-26 03:42 | 18.13498 | -65.48771 | 30 ft | 4 kts | 260° |
| 2026-04-26 03:42 | 18.13497 | -65.48777 | 30 ft | 0 kts | 254° |